Latest Weather Observations for Essendon Airport

IDV60801

Issued at 6:32 pm EDT Tuesday 17 October 2017 (issued every 30 minutes, with the page automatically refreshed every 10 minutes)

About weather observations | Map of weather stations | Latest weather observations for VIC | Other Formats
Station Details ID: 086038 Name: ESSENDON AIRPORT Lat: -37.73 Lon: 144.91 Height: 78.4 m
Data from the previous 72 hours. | See also: Recent months at Essendon Airport
Date/Time
EDT
Temp
°C
App
Temp
°C
Dew
Point
°C
Rel
Hum
%
Delta-T
°C
Wind Press
QNH
hPa
Press
MSL
hPa
Rain since
9am
mm
Dir  Spd
km/h
Gust
km/h
Spd
kts
Gust
kts
17/06:30pm 28.1 23.0 3.0 20 12.5 N 19 24 10 13 1020.3 1020.3 0.0
17/06:00pm 28.7 23.8 2.1 18 13.1 N 17 28 9 15 1020.3 1020.3 0.0
17/05:30pm 28.8 23.6 3.6 20 12.7 NNE 20 30 11 16 1020.3 1020.3 0.0
17/05:00pm 29.2 24.1 4.0 20 12.8 N 20 30 11 16 1020.4 1020.4 0.0
17/04:30pm 29.1 24.1 4.6 21 12.6 N 20 30 11 16 1020.5 1020.5 0.0
17/04:00pm 29.3 23.0 4.0 20 12.9 NNW 26 35 14 19 1020.5 1020.5 0.0
17/03:30pm 29.5 24.5 3.5 19 13.2 N 19 33 10 18 1020.7 1020.7 0.0
17/03:00pm 28.8 23.7 6.2 24 11.9 N 22 33 12 18 1021.0 1021.0 0.0
17/02:30pm 29.0 23.5 3.8 20 12.8 N 22 41 12 22 1021.3 1021.3 0.0
17/02:00pm 29.3 24.1 3.3 19 13.1 N 20 35 11 19 1021.5 1021.5 0.0
17/01:30pm 28.7 23.0 6.7 25 11.7 N 26 39 14 21 1021.7 1021.7 0.0
17/01:00pm 27.9 22.3 7.2 27 11.0 N 26 35 14 19 1022.0 1022.0 0.0
17/12:30pm 27.5 21.2 7.4 28 10.8 NNE 30 41 16 22 1022.4 1022.4 0.0
17/12:00pm 26.3 21.0 8.3 32 9.7 N 26 37 14 20 1022.6 1022.6 0.0
17/11:30am 25.6 19.5 8.1 33 9.4 N 30 46 16 25 1022.9 1022.9 0.0
17/11:00am 24.2 17.5 7.4 34 8.8 N 32 46 17 25 1023.1 1023.1 0.0
17/10:30am 23.9 17.1 7.5 35 8.6 N 33 41 18 22 1023.2 1023.2 0.0
17/10:00am 23.5 17.0 8.0 37 8.2 N 32 46 17 25 1023.4 1023.4 0.0
17/09:47am 23.3 17.6 8.2 38 8.0 N 28 46 15 25 1023.2 1023.2 0.0
17/09:30am 23.1 18.5 9.5 42 7.4 N 24 39 13 21 1023.4 1023.4 0.0
17/09:19am 22.4 17.2 8.9 42 7.2 N 26 43 14 23 1023.2 1023.2 0.0
17/09:00am 21.7 19.0 10.5 49 6.1 N 15 20 8 11 1023.4 1023.4 0.0
17/08:30am 19.5 17.0 9.7 53 5.2 N 13 20 7 11 1023.2 1023.2 0.0
17/08:00am 16.9 14.2 10.5 66 3.4 N 15 19 8 10 1022.9 1022.9 0.0
17/07:30am 13.5 12.5 10.9 84 1.4 NNW 7 9 4 5 1022.7 1022.7 0.0
17/07:00am 11.9 10.3 10.1 89 0.9 NNW 9 11 5 6 1022.4 1022.4 0.0
17/06:30am 11.2 9.9 10.1 93 0.6 N 7 9 4 5 1022.1 1022.1 0.0
17/06:00am 10.3 8.4 9.2 93 0.5 N 9 9 5 5 1021.8 1021.8 0.0
17/05:30am 12.2 12.6 11.1 93 0.6 CALM 0 0 0 0 1021.9 1021.9 0.0
17/05:00am 11.7 12.0 10.9 95 0.4 CALM 0 0 0 0 1021.8 1021.8 0.0
17/04:30am 11.7 10.9 9.8 88 1.0 N 4 6 2 3 1021.8 1021.8 0.0
17/04:00am 13.8 13.0 11.7 87 1.1 N 7 9 4 5 1021.6 1021.6 0.0
17/03:30am 12.8 11.6 11.7 93 0.6 N 9 9 5 5 1021.7 1021.7 0.0
17/03:00am 12.2 11.1 10.6 90 0.8 N 7 9 4 5 1021.9 1021.9 0.0
17/02:30am 13.8 13.4 12.5 92 0.7 N 6 7 3 4 1022.0 1022.0 0.0
17/02:00am 13.7 12.2 11.8 88 1.0 N 11 11 6 6 1022.4 1022.4 0.0
17/01:30am 14.3 13.3 10.9 80 1.8 N 7 9 4 5 1022.7 1022.7 0.0
17/01:00am 15.5 14.7 11.7 78 2.1 NW 7 7 4 4 1023.1 1023.1 0.0
17/12:30am 16.1 15.4 12.1 77 2.2 WNW 7 9 4 5 1023.3 1023.3 0.0
17/12:00am 15.9 14.3 11.7 76 2.3 WNW 11 13 6 7 1023.2 1023.2 0.0
 
Date/Time
EDT
Temp
°C
App
Temp
°C
Dew
Point
°C
Rel
Hum
%
Delta-T
°C
Wind Press
QNH
hPa
Press
MSL
hPa
Rain since
9am
mm
Dir  Spd
km/h
Gust
km/h
Spd
kts
Gust
kts
16/11:30pm 16.6 14.8 12.0 74 2.5 WNW 13 15 7 8 1023.2 1023.2 0.0
16/11:00pm 18.1 16.7 12.3 69 3.2 NW 11 15 6 8 1023.0 1023.0 0.0
16/10:38pm 18.0 16.8 12.7 71 3.0 NW 11 13 6 7 1023.0 1023.0 0.0
16/10:30pm 17.9 16.9 12.4 70 3.1 NW 9 13 5 7 1023.0 1023.0 0.0
16/10:00pm 18.4 17.9 12.2 67 3.4 NNW 6 9 3 5 1022.9 1022.9 0.0
16/09:30pm 19.5 19.9 12.5 64 3.9 W 2 7 1 4 1022.8 1022.8 0.0
16/09:00pm 20.3 20.0 12.8 62 4.2 SW 6 7 3 4 1022.7 1022.7 0.0
16/08:30pm 19.9 19.3 12.4 62 4.2 SW 7 9 4 5 1022.4 1022.4 0.0
16/08:00pm 20.7 19.6 12.1 58 4.8 SSW 9 13 5 7 1022.1 1022.1 0.0
16/07:30pm 21.7 19.9 12.0 54 5.5 SSW 13 19 7 10 1021.9 1021.9 0.0
16/07:00pm 23.2 19.8 9.2 41 7.5 SSW 17 20 9 11 1021.8 1021.8 0.0
16/06:30pm 24.9 22.2 7.5 33 9.2 NW 11 17 6 9 1021.6 1021.6 0.0
16/06:00pm 27.1 23.5 8.5 31 10.1 N 17 24 9 13 1021.3 1021.3 0.0
16/05:30pm 27.7 24.2 8.6 30 10.5 N 17 24 9 13 1021.2 1021.2 0.0
16/05:00pm 27.7 23.5 8.1 29 10.6 NNE 20 33 11 18 1021.1 1021.1 0.0
16/04:30pm 27.8 24.0 9.1 31 10.3 N 19 30 10 16 1021.3 1021.3 0.0
16/04:00pm 28.2 24.4 9.9 32 10.2 N 20 30 11 16 1021.5 1021.5 0.0
16/03:30pm 27.3 23.1 9.6 33 9.8 N 22 35 12 19 1021.9 1021.9 0.0
16/03:00pm 27.4 22.3 9.3 32 10.0 N 26 41 14 22 1021.9 1021.9 0.0
16/02:30pm 27.4 23.0 8.8 31 10.2 N 22 30 12 16 1022.4 1022.4 0.0
16/02:00pm 27.7 22.8 8.6 30 10.4 NNE 24 37 13 20 1022.7 1022.7 0.0
16/01:30pm 28.1 24.3 11.2 35 9.7 NNE 22 33 12 18 1022.8 1022.8 0.0
16/01:00pm 26.3 21.9 10.5 37 8.8 N 24 35 13 19 1023.3 1023.3 0.0
16/12:30pm 25.0 20.6 10.5 40 8.1 N 24 32 13 17 1023.7 1023.7 0.0
16/12:00pm 25.1 20.5 10.9 41 7.9 N 26 33 14 18 1024.1 1024.1 0.0
16/11:30am 24.2 20.1 11.5 45 7.2 N 24 35 13 19 1024.5 1024.5 0.0
16/11:00am 23.9 22.8 13.2 51 6.2 NE 11 26 6 14 1025.0 1025.0 0.0
16/10:30am 18.8 18.0 14.1 74 2.7 E 11 15 6 8 1025.3 1025.3 0.0
16/10:00am 15.7 14.8 12.5 81 1.8 E 9 13 5 7 1025.6 1025.6 0.0
16/09:32am 14.2 13.6 13.4 95 0.4 NE 9 15 5 8 1025.7 1025.7 0.0
16/09:30am 14.0 13.3 13.2 95 0.4 NE 9 15 5 8 1025.7 1025.7 0.0
16/09:24am 13.9 13.7 13.7 99 0.1 ENE 7 15 4 8 1025.7 1025.7 0.0
16/09:00am 12.1 10.7 12.1 100 0.0 ENE 11 13 6 7 1025.8 1025.8 0.0
16/08:30am 11.6 11.0 11.6 100 0.0 ENE 6 7 3 4 1025.7 1025.7 0.0
16/08:00am 11.6 10.4 11.6 100 0.0 NE 9 11 5 6 1025.6 1025.6 0.0
16/07:36am 11.5 10.3 11.5 100 0.0 NE 9 11 5 6 1025.3 1025.3 0.0
16/07:30am 11.4 10.1 11.4 100 0.0 NE 9 13 5 7 1025.3 1025.3 0.0
16/07:00am 11.5 11.2 11.5 100 0.0 ENE 4 9 2 5 1025.0 1025.0 0.0
16/06:30am 11.6 10.8 11.6 100 0.0 NE 7 11 4 6 1024.8 1024.8 0.0
16/06:00am 11.7 11.5 11.7 100 0.0 S 4 7 2 4 1024.6 1024.6 0.0
16/05:30am 11.8 12.4 11.8 100 0.0 CALM 0 0 0 0 1024.5 1024.5 0.0
16/05:00am 11.9 12.5 11.9 100 0.0 CALM 0 0 0 0 1024.5 1024.5 0.0
16/04:30am 11.8 11.6 11.8 100 0.0 NW 4 9 2 5 1024.3 1024.3 0.0
16/04:00am 11.9 12.1 11.7 99 0.1 WSW 2 7 1 4 1024.4 1024.4 0.0
16/03:30am 11.9 11.7 11.9 100 0.0 SW 4 7 2 4 1024.5 1024.5 0.0
16/03:00am 11.9 12.5 11.9 100 0.0 CALM 0 0 0 0 1024.7 1024.7 0.0
16/02:30am 11.6 11.7 11.6 100 0.0 WNW 2 7 1 4 1025.0 1025.0 0.0
16/02:00am 11.2 9.9 11.2 100 0.0 WNW 9 11 5 6 1025.2 1025.2 0.0
16/01:32am 10.5 9.0 10.5 100 0.0 WNW 9 11 5 6 1025.4 1025.4 0.0
16/01:30am 10.3 8.7 10.3 100 0.0 WNW 9 11 5 6 1025.4 1025.4 0.0
16/01:00am 10.3 8.7 10.3 100 0.0 W 9 11 5 6 1025.5 1025.5 0.0
16/12:30am 10.1 8.1 10.1 100 0.0 WSW 11 11 6 6 1025.3 1025.3 0.0
16/12:00am 10.7 8.9 10.7 100 0.0 W 11 13 6 7 1025.3 1025.3 0.0
 
Date/Time
EDT
Temp
°C
App
Temp
°C
Dew
Point
°C
Rel
Hum
%
Delta-T
°C
Wind Press
QNH
hPa
Press
MSL
hPa
Rain since
9am
mm
Dir  Spd
km/h
Gust
km/h
Spd
kts
Gust
kts
15/11:30pm 11.1 9.8 11.1 100 0.0 SW 9 11 5 6 1025.3 1025.3 0.0
15/11:00pm 11.4 9.7 11.2 99 0.1 SW 11 13 6 7 1025.4 1025.4 0.0
15/10:30pm 11.7 10.1 11.4 98 0.2 SW 11 13 6 7 1025.3 1025.3 0.0
15/10:00pm 12.0 10.0 11.4 96 0.3 SW 13 13 7 7 1025.4 1025.4 0.0
15/09:30pm 12.5 10.5 11.4 93 0.6 SW 13 15 7 8 1025.4 1025.4 0.0
15/09:00pm 13.1 10.7 11.3 89 0.9 SW 15 19 8 10 1025.2 1025.2 0.0
15/08:30pm 13.7 10.9 11.2 85 1.3 SSW 17 22 9 12 1024.9 1024.9 0.0
15/08:00pm 14.0 11.1 11.0 82 1.6 SSW 17 20 9 11 1024.7 1024.7 0.0
15/07:30pm 14.6 11.3 10.8 78 2.0 SSW 19 24 10 13 1024.3 1024.3 0.0
15/07:00pm 15.6 12.2 10.4 71 2.7 SSW 19 26 10 14 1024.0 1024.0 0.0
15/06:30pm 16.4 12.4 10.5 68 3.1 SSW 22 28 12 15 1023.8 1023.8 0.0
15/06:00pm 17.1 13.1 10.5 65 3.5 S 22 28 12 15 1023.9 1023.9 0.0
15/05:30pm 17.0 12.1 10.1 64 3.7 S 26 33 14 18 1023.8 1023.8 0.0
15/05:00pm 17.7 13.2 10.1 61 4.0 S 24 37 13 20 1023.7 1023.7 0.0
15/04:30pm 17.9 13.0 10.0 60 4.2 SSW 26 32 14 17 1023.7 1023.7 0.0
15/04:00pm 18.5 14.1 10.3 59 4.4 S 24 30 13 16 1023.8 1023.8 0.0
15/03:30pm 18.6 14.2 9.1 54 5.0 S 22 30 12 16 1023.8 1023.8 0.0
15/03:00pm 19.6 15.8 8.9 50 5.6 SSE 19 24 10 13 1023.9 1023.9 0.0
15/02:30pm 20.0 16.6 9.0 49 5.8 S 17 22 9 12 1024.0 1024.0 0.0
15/02:00pm 19.5 16.7 8.5 49 5.7 SSE 13 24 7 13 1024.2 1024.2 0.0
15/01:30pm 18.9 16.5 8.6 51 5.4 SSW 11 17 6 9 1024.2 1024.2 0.0
15/01:00pm 19.0 17.0 8.6 51 5.4 SSW 9 20 5 11 1024.6 1024.6 0.0
15/12:30pm 17.9 15.7 7.9 52 5.1 SSW 9 19 5 10 1024.9 1024.9 0.0
15/12:00pm 17.0 14.6 6.8 51 5.0 SSE 9 15 5 8 1025.2 1025.2 0.0
15/11:30am 16.7 14.4 7.4 54 4.7 E 9 13 5 7 1025.5 1025.5 0.0
15/11:00am 15.7 13.3 7.2 57 4.2 SSW 9 17 5 9 1025.9 1025.9 0.0
15/10:30am 14.7 12.9 7.3 61 3.7 N 6 11 3 6 1026.1 1026.1 0.0
15/10:00am 13.8 11.5 7.3 65 3.2 SSE 9 13 5 7 1026.1 1026.1 0.0
15/09:30am 12.9 11.0 7.4 69 2.7 SSE 7 13 4 7 1026.2 1026.2 0.0
15/09:00am 11.9 10.0 7.6 75 2.1 SW 7 11 4 6 1026.1 1026.1 0.0
15/08:30am 11.1 8.9 7.8 80 1.6 WNW 9 11 5 6 1026.0 1026.0 0.0
15/08:00am 9.6 7.2 7.2 85 1.1 WNW 9 9 5 5 1025.9 1025.9 0.0
15/07:30am 7.2 4.6 6.1 93 0.5 NW 9 11 5 6 1025.6 1025.6 0.0
15/07:00am 5.8 2.2 5.2 96 0.3 NNW 13 15 7 8 1025.3 1025.3 0.0
15/06:30am 5.7 2.1 4.8 94 0.4 NW 13 15 7 8 1024.7 1024.7 0.0
15/06:00am 6.6 3.1 5.4 92 0.5 NW 13 15 7 8 1024.4 1024.4 0.0
15/05:30am 6.9 3.8 5.5 91 0.6 WNW 11 13 6 7 1024.2 1024.2 0.0
15/05:00am 7.1 4.0 5.7 91 0.6 NW 11 13 6 7 1024.2 1024.2 0.0
15/04:30am 6.9 3.8 5.4 90 0.7 NW 11 13 6 7 1024.1 1024.1 0.0
15/04:00am 7.1 4.3 5.3 88 0.8 WNW 9 13 5 7 1024.1 1024.1 0.0
15/03:30am 7.2 4.4 5.3 88 0.8 WNW 9 11 5 6 1024.3 1024.3 0.0
15/03:00am 7.6 4.9 5.7 88 0.9 WNW 9 11 5 6 1024.5 1024.5 0.0
15/02:30am 7.7 5.0 5.7 87 0.9 WNW 9 11 5 6 1024.6 1024.6 0.0
15/02:00am 7.3 5.1 5.3 87 0.9 NW 6 9 3 5 1024.6 1024.6 0.0
15/01:30am 8.4 6.2 6.2 86 1.0 WNW 7 9 4 5 1024.9 1024.9 0.0
15/01:00am 8.4 5.6 5.0 79 1.5 WNW 9 9 5 5 1025.1 1025.1 0.0
15/12:30am 9.7 8.6 5.3 74 2.0 CALM 0 0 0 0 1025.1 1025.1 0.0
15/12:00am 9.0 6.7 4.6 74 1.9 S 6 9 3 5 1025.1 1025.1 0.0
 
Date/Time
EDT
Temp
°C
App
Temp
°C
Dew
Point
°C
Rel
Hum
%
Delta-T
°C
Wind Press
QNH
hPa
Press
MSL
hPa
Rain since
9am
mm
Dir  Spd
km/h
Gust
km/h
Spd
kts
Gust
kts
14/11:30pm 10.0 7.7 4.6 69 2.4 SSW 6 7 3 4 1025.0 1025.0 0.0
14/11:00pm 10.1 8.2 4.9 70 2.3 SSE 4 6 2 3 1025.1 1025.1 0.0
14/10:30pm 10.3 7.8 4.7 68 2.5 SSE 7 9 4 5 1025.3 1025.3 0.0
14/10:00pm 11.0 8.2 5.3 68 2.6 SSE 9 11 5 6 1025.3 1025.3 0.0
14/09:30pm 11.3 8.2 5.6 68 2.6 SSE 11 15 6 8 1025.2 1025.2 0.0
14/09:00pm 11.8 8.6 6.9 72 2.3 SSW 13 17 7 9 1025.2 1025.2 0.0
14/08:30pm 12.1 8.9 6.8 70 2.5 SSW 13 17 7 9 1025.1 1025.1 0.0
14/08:00pm 12.8 8.7 6.2 64 3.1 S 17 22 9 12 1025.0 1025.0 0.0
14/07:30pm 13.4 8.7 5.1 57 3.9 S 19 26 10 14 1024.8 1024.8 0.0
14/07:00pm 14.2 8.9 4.8 53 4.4 S 22 30 12 16 1024.4 1024.4 0.0

Other Formats:

Comma delimited format used in spreadsheet applications
http://www.bom.gov.au/fwo/IDV60801/IDV60801.95866.axf

JavaScript Object Notation format (JSON) in row-major order
http://www.bom.gov.au/fwo/IDV60801/IDV60801.95866.json